KGLD/GLD METAR and TAF weather

Enter ICAO airport designator
Station Type Date Time Source
KGLD METAR 2019/02/23 22:53 UTC NOAA

KGLD 232253Z AUTO 34023G29KT 10SM CLR M02/M07 A2986 RMK AO2 PK WND 33033/2157 UPB2154E07 SLP132 P0000 T10171072 FZRANO $


Station Type Date Time Source
KGLD Decoded METAR 2019/02/23 22:53 UTC NOAA

GOODLAND RENNER FIELD, KS, United States (KGLD) 39-22N 101-42W 1114M
Feb 23, 2019 - 05:53 PM EST / 2019.02.23 2253 UTC
Wind: from the NNW (340 degrees) at 26 MPH (23 KT) gusting to 33 MPH (29 KT):0
Visibility: 10 mile(s):0
Sky conditions: clear
Precipitation last hour: A trace
Temperature: 28.9 F (-1.7 C)
Windchill: 14 F (-10 C):1
Dew Point: 19.0 F (-7.2 C)
Relative Humidity: 66%
Pressure (altimeter): 29.86 in. Hg (1011 hPa)
ob: KGLD 232253Z AUTO 34023G29KT 10SM CLR M02/M07 A2986 RMK AO2 PK WND 33033/2157 UPB2154E07 SLP132 P0000 T10171072 FZRANO
cycle: 23

Station Type Date Time Source
KGLD TAF 2019/02/23 18:52 UTC NOAA

TAF KGLD 231740Z 2318/2418 35022G35KT 1/2SM -SN FZFG BLSN FEW007 OVC012
FM232000 34025G36KT P6SM SCT015 BKN080
TEMPO 2320/2324 3SM BLSN SCT080
FM240200 30009KT P6SM SKC


Example: see airport list